Time;durP1;ratioP1;P1;durP2;ratioP2;P2;SDS_P1;SDS_P2;PMS_P1;PMS_P2;Temp;Humidity;BMP_temperature;BMP_pressure;BME280_temperature;BME280_humidity;BME280_pressure;Samples;Min_cycle;Max_cycle;Signal;HPM_P1;HPM_P2
2023/03/17 00:01:36;;;;;;;10.20;5.70;;;;;;;;;;5012462;28;20033;-80
2023/03/17 00:04:02;;;;;;;10.00;6.03;;;;;;;;;;5025101;28;20053;-79
2023/03/17 00:06:29;;;;;;;11.30;5.03;;;;;;;;;;5027702;28;20033;-80
2023/03/17 00:08:56;;;;;;;12.52;5.85;;;;;;;;;;5020039;28;20025;-80
2023/03/17 00:11:22;;;;;;;16.25;6.30;;;;;;;;;;5009183;28;20098;-79
2023/03/17 00:13:48;;;;;;;11.38;5.35;;;;;;;;;;5018296;28;20022;-80
2023/03/17 00:16:21;;;;;;;10.38;5.20;;;;;;;;;;5007553;28;20050;-80
2023/03/17 00:18:48;;;;;;;13.77;5.97;;;;;;;;;;5015904;28;20022;-79
2023/03/17 00:21:16;;;;;;;9.75;4.60;;;;;;;;;;5008968;28;20106;-79
2023/03/17 00:23:45;;;;;;;8.70;5.00;;;;;;;;;;5012484;28;20017;-80
2023/03/17 00:26:11;;;;;;;10.75;5.68;;;;;;;;;;5025530;28;20474;-79
2023/03/17 00:28:38;;;;;;;9.88;5.13;;;;;;;;;;5019250;28;20113;-80
2023/03/17 00:31:12;;;;;;;12.20;5.65;;;;;;;;;;5014964;28;20023;-80
2023/03/17 00:33:38;;;;;;;10.00;5.65;;;;;;;;;;5021641;28;20018;-79
2023/03/17 00:36:06;;;;;;;10.75;5.80;;;;;;;;;;5006955;28;20109;-80
2023/03/17 00:38:32;;;;;;;12.70;4.68;;;;;;;;;;5006699;28;20049;-80
2023/03/17 00:40:59;;;;;;;8.98;5.10;;;;;;;;;;5021376;28;20095;-79
2023/03/17 00:43:25;;;;;;;9.75;4.85;;;;;;;;;;5011307;28;20069;-80
2023/03/17 00:45:51;;;;;;;11.13;5.20;;;;;;;;;;5028658;28;20101;-79
2023/03/17 00:48:21;;;;;;;9.63;4.40;;;;;;;;;;5018059;28;20022;-79
2023/03/17 00:50:48;;;;;;;7.80;3.97;;;;;;;;;;5026031;28;20022;-80
2023/03/17 00:53:15;;;;;;;7.85;4.10;;;;;;;;;;5027623;28;20091;-80
2023/03/17 00:55:43;;;;;;;8.15;4.50;;;;;;;;;;5012568;28;20065;-80
2023/03/17 00:58:13;;;;;;;8.27;3.92;;;;;;;;;;5015873;28;20089;-80
2023/03/17 01:00:39;;;;;;;8.48;4.15;;;;;;;;;;5027427;28;20026;-80
2023/03/17 01:03:10;;;;;;;8.77;4.40;;;;;;;;;;5011125;28;20032;-80
2023/03/17 01:05:36;;;;;;;10.82;4.18;;;;;;;;;;5028458;28;20030;-80
2023/03/17 01:08:02;;;;;;;8.25;3.75;;;;;;;;;;5017559;28;20061;-79
2023/03/17 01:10:29;;;;;;;8.43;4.18;;;;;;;;;;5009691;28;20105;-79
2023/03/17 01:12:56;;;;;;;10.40;4.55;;;;;;;;;;5023531;28;20108;-79
2023/03/17 01:15:23;;;;;;;10.23;4.15;;;;;;;;;;5007100;28;20053;-79
2023/03/17 01:17:50;;;;;;;7.65;3.85;;;;;;;;;;5007584;28;20037;-79
2023/03/17 01:20:20;;;;;;;9.52;3.45;;;;;;;;;;5023361;28;20468;-79
2023/03/17 01:22:47;;;;;;;6.93;3.55;;;;;;;;;;5015121;28;20030;-79
2023/03/17 01:25:13;;;;;;;7.45;4.63;;;;;;;;;;5026183;28;20032;-79
2023/03/17 01:27:40;;;;;;;6.90;3.72;;;;;;;;;;5007617;28;20026;-79
2023/03/17 01:30:08;;;;;;;7.38;3.83;;;;;;;;;;5019141;28;20038;-79
2023/03/17 01:32:34;;;;;;;7.22;4.00;;;;;;;;;;5019875;28;20034;-79
2023/03/17 01:35:00;;;;;;;6.40;3.65;;;;;;;;;;5024362;28;20383;-79
2023/03/17 01:37:26;;;;;;;7.57;3.97;;;;;;;;;;5016365;28;20022;-79
2023/03/17 01:39:52;;;;;;;8.88;4.50;;;;;;;;;;5008841;28;20030;-79
2023/03/17 01:42:19;;;;;;;7.93;3.97;;;;;;;;;;5033442;28;20037;-79
2023/03/17 01:45:01;;;;;;;8.23;4.15;;;;;;;;;;5020080;28;20018;-79
2023/03/17 01:47:29;;;;;;;9.23;4.10;;;;;;;;;;5008741;28;20026;-78
2023/03/17 01:49:56;;;;;;;9.65;3.83;;;;;;;;;;5006953;28;20030;-79
2023/03/17 01:52:22;;;;;;;10.73;5.15;;;;;;;;;;5018628;28;20030;-79
2023/03/17 01:55:01;;;;;;;10.32;4.70;;;;;;;;;;5009721;28;20019;-79
2023/03/17 01:57:27;;;;;;;10.90;4.40;;;;;;;;;;5013778;28;20030;-78
2023/03/17 02:00:04;;;;;;;8.95;4.50;;;;;;;;;;5011871;28;20417;-79
2023/03/17 02:02:31;;;;;;;8.00;4.45;;;;;;;;;;5011021;28;20021;-79
2023/03/17 02:04:57;;;;;;;8.70;4.20;;;;;;;;;;5018116;28;20078;-79
2023/03/17 02:07:25;;;;;;;10.38;5.85;;;;;;;;;;5017818;28;20026;-79
2023/03/17 02:09:52;;;;;;;9.15;4.43;;;;;;;;;;5022560;28;20371;-80
2023/03/17 02:12:18;;;;;;;9.98;4.72;;;;;;;;;;5003615;28;20018;-79
2023/03/17 02:14:45;;;;;;;8.45;4.00;;;;;;;;;;5014367;28;20057;-79
2023/03/17 02:17:11;;;;;;;9.40;4.53;;;;;;;;;;5021766;28;20037;-79
2023/03/17 02:19:38;;;;;;;10.68;4.75;;;;;;;;;;5019845;28;20044;-79
2023/03/17 02:22:04;;;;;;;7.45;4.18;;;;;;;;;;5018061;28;20041;-79
2023/03/17 02:24:46;;;;;;;11.43;4.90;;;;;;;;;;5010824;28;20022;-79
2023/03/17 02:27:17;;;;;;;8.30;4.70;;;;;;;;;;5012937;28;20052;-79
2023/03/17 02:29:45;;;;;;;10.57;4.45;;;;;;;;;;5007310;28;20030;-79
2023/03/17 02:32:11;;;;;;;9.45;5.00;;;;;;;;;;5020782;28;20089;-79
2023/03/17 02:34:37;;;;;;;13.93;5.55;;;;;;;;;;5012343;28;20026;-79
2023/03/17 02:37:04;;;;;;;10.30;4.82;;;;;;;;;;5007428;28;20134;-79
2023/03/17 02:39:30;;;;;;;8.50;4.40;;;;;;;;;;5008952;28;20457;-79
2023/03/17 02:41:57;;;;;;;9.93;4.72;;;;;;;;;;5011329;28;20030;-79
2023/03/17 02:44:23;;;;;;;7.85;4.78;;;;;;;;;;5018214;28;20112;-80
2023/03/17 02:46:49;;;;;;;10.07;5.45;;;;;;;;;;5013596;28;20034;-79
2023/03/17 02:49:15;;;;;;;8.80;5.00;;;;;;;;;;5009925;28;20457;-79
2023/03/17 02:51:41;;;;;;;10.43;5.55;;;;;;;;;;5016424;28;20030;-79
2023/03/17 02:54:07;;;;;;;12.38;5.90;;;;;;;;;;5026543;28;20030;-79
2023/03/17 02:56:33;;;;;;;10.98;5.55;;;;;;;;;;5015205;28;20041;-79
2023/03/17 02:58:59;;;;;;;10.88;5.35;;;;;;;;;;5015339;28;20034;-79
2023/03/17 03:01:25;;;;;;;9.18;5.50;;;;;;;;;;5009031;28;20034;-79
2023/03/17 03:03:52;;;;;;;10.75;5.70;;;;;;;;;;5013095;28;20026;-78
2023/03/17 03:06:18;;;;;;;8.43;5.45;;;;;;;;;;5016373;28;20011;-78
2023/03/17 03:08:44;;;;;;;11.65;6.05;;;;;;;;;;5020375;28;20026;-79
2023/03/17 03:11:10;;;;;;;10.77;6.15;;;;;;;;;;5015218;28;20034;-79
2023/03/17 03:13:37;;;;;;;11.05;5.63;;;;;;;;;;5004799;28;20018;-79
2023/03/17 03:16:04;;;;;;;9.27;5.30;;;;;;;;;;5007067;28;20033;-79
2023/03/17 03:18:31;;;;;;;9.73;5.28;;;;;;;;;;5021486;28;20022;-79
2023/03/17 03:20:57;;;;;;;9.45;5.43;;;;;;;;;;5010692;28;20065;-78
2023/03/17 03:23:23;;;;;;;10.02;5.72;;;;;;;;;;5018451;28;20057;-78
2023/03/17 03:25:49;;;;;;;11.02;6.35;;;;;;;;;;5007874;28;20030;-80
2023/03/17 03:28:15;;;;;;;10.35;6.03;;;;;;;;;;5002923;28;20031;-80
2023/03/17 03:30:43;;;;;;;10.52;5.80;;;;;;;;;;5014673;28;20541;-79
2023/03/17 03:33:10;;;;;;;10.95;5.80;;;;;;;;;;5009463;28;20570;-80
2023/03/17 03:35:36;;;;;;;11.52;5.57;;;;;;;;;;5011843;28;20037;-80
2023/03/17 03:38:02;;;;;;;10.40;5.18;;;;;;;;;;5008663;28;20026;-80
2023/03/17 03:40:28;;;;;;;11.18;5.25;;;;;;;;;;5019244;28;20077;-79
2023/03/17 03:42:55;;;;;;;10.23;5.20;;;;;;;;;;5008829;28;20033;-79
2023/03/17 03:45:21;;;;;;;10.45;5.85;;;;;;;;;;5013341;28;20033;-79
2023/03/17 03:47:47;;;;;;;11.00;5.82;;;;;;;;;;5018854;28;20026;-81
2023/03/17 03:50:13;;;;;;;13.52;6.15;;;;;;;;;;5010823;28;20504;-80
2023/03/17 03:52:39;;;;;;;11.52;6.60;;;;;;;;;;5008684;28;20103;-79
2023/03/17 03:58:10;;;;;;;11.05;6.05;;;;;;;;;;5012595;28;20048;-80
2023/03/17 04:00:36;;;;;;;9.52;5.05;;;;;;;;;;5011854;28;20042;-78
2023/03/17 04:03:02;;;;;;;9.85;5.68;;;;;;;;;;5015268;28;20065;-78
2023/03/17 04:05:28;;;;;;;11.25;6.07;;;;;;;;;;5009722;28;20032;-78
2023/03/17 04:07:54;;;;;;;11.27;5.78;;;;;;;;;;5005926;28;20475;-78
2023/03/17 04:10:20;;;;;;;10.60;5.90;;;;;;;;;;5006143;28;20033;-79
2023/03/17 04:12:46;;;;;;;11.23;7.00;;;;;;;;;;5017438;28;20037;-78
2023/03/17 04:15:16;;;;;;;10.90;5.57;;;;;;;;;;5011723;28;20026;-79
2023/03/17 04:17:43;;;;;;;13.18;6.10;;;;;;;;;;5012333;28;20034;-78
2023/03/17 04:20:10;;;;;;;11.13;6.43;;;;;;;;;;5011569;28;20034;-79
2023/03/17 04:22:36;;;;;;;13.45;6.60;;;;;;;;;;5002913;28;20037;-78
2023/03/17 04:25:02;;;;;;;11.38;5.90;;;;;;;;;;5006233;28;20658;-78
2023/03/17 04:27:28;;;;;;;11.25;6.82;;;;;;;;;;5003013;28;20046;-79
2023/03/17 04:29:54;;;;;;;9.40;5.60;;;;;;;;;;5002776;28;20090;-78
2023/03/17 04:32:20;;;;;;;11.10;6.22;;;;;;;;;;5001406;28;20046;-79
2023/03/17 04:34:46;;;;;;;11.77;5.80;;;;;;;;;;5009302;28;20030;-77
2023/03/17 04:37:12;;;;;;;11.88;6.82;;;;;;;;;;5009779;28;20026;-79
2023/03/17 04:39:38;;;;;;;10.93;6.00;;;;;;;;;;5020158;28;20091;-78
2023/03/17 04:42:05;;;;;;;13.93;6.43;;;;;;;;;;5017890;28;20058;-79
2023/03/17 04:44:31;;;;;;;11.77;6.65;;;;;;;;;;5004529;28;20026;-79
2023/03/17 04:46:57;;;;;;;12.07;6.70;;;;;;;;;;5012660;28;20494;-79
2023/03/17 04:49:23;;;;;;;14.38;6.95;;;;;;;;;;5002682;28;20023;-77
2023/03/17 04:51:49;;;;;;;12.00;6.55;;;;;;;;;;5010910;28;20025;-80
2023/03/17 04:54:15;;;;;;;12.63;6.50;;;;;;;;;;5006298;28;20029;-78
2023/03/17 04:56:41;;;;;;;12.02;6.95;;;;;;;;;;5008111;28;20172;-77
2023/03/17 04:59:08;;;;;;;11.15;6.78;;;;;;;;;;5008500;28;20044;-78
2023/03/17 05:01:34;;;;;;;11.68;6.82;;;;;;;;;;5014445;28;20089;-79
2023/03/17 05:04:00;;;;;;;12.10;6.95;;;;;;;;;;5008424;28;20026;-78
2023/03/17 05:06:26;;;;;;;12.45;8.27;;;;;;;;;;5014455;28;20034;-78
2023/03/17 05:08:52;;;;;;;13.50;7.22;;;;;;;;;;5006001;28;20033;-81
2023/03/17 05:11:18;;;;;;;14.77;7.50;;;;;;;;;;5002724;28;20037;-77
2023/03/17 05:13:44;;;;;;;12.63;6.57;;;;;;;;;;5007918;28;20027;-81
2023/03/17 05:16:10;;;;;;;14.30;6.90;;;;;;;;;;5018388;28;20093;-80
2023/03/17 05:18:36;;;;;;;13.00;6.50;;;;;;;;;;5010185;28;20494;-80
2023/03/17 05:21:03;;;;;;;14.00;7.45;;;;;;;;;;5009534;28;20058;-81
2023/03/17 05:23:29;;;;;;;14.02;7.72;;;;;;;;;;5005080;28;20035;-82
2023/03/17 05:25:55;;;;;;;12.27;6.57;;;;;;;;;;5009820;28;20030;-80
2023/03/17 05:28:22;;;;;;;13.75;7.53;;;;;;;;;;5022369;28;20049;-81
2023/03/17 05:30:48;;;;;;;16.90;7.80;;;;;;;;;;5008444;28;20022;-78
2023/03/17 05:33:15;;;;;;;10.60;6.90;;;;;;;;;;5020226;28;20030;-82
2023/03/17 05:35:42;;;;;;;14.38;6.97;;;;;;;;;;5008440;28;20060;-78
2023/03/17 05:38:09;;;;;;;15.77;7.47;;;;;;;;;;5014437;28;20109;-80
2023/03/17 05:40:35;;;;;;;14.70;7.05;;;;;;;;;;5007628;28;20018;-79
2023/03/17 05:43:02;;;;;;;14.75;7.80;;;;;;;;;;5012291;28;20094;-81
2023/03/17 05:45:29;;;;;;;12.10;7.03;;;;;;;;;;5013894;28;20070;-82
2023/03/17 05:47:55;;;;;;;13.75;7.13;;;;;;;;;;5014703;28;20057;-82
2023/03/17 05:50:21;;;;;;;11.77;7.28;;;;;;;;;;5013544;28;20168;-82
2023/03/17 05:52:47;;;;;;;13.65;7.32;;;;;;;;;;5013272;28;20133;-80
2023/03/17 05:55:14;;;;;;;13.18;6.25;;;;;;;;;;5010358;28;20049;-83
2023/03/17 05:57:40;;;;;;;13.00;7.25;;;;;;;;;;5017011;28;20579;-82
2023/03/17 06:00:07;;;;;;;17.13;7.72;;;;;;;;;;5012560;28;20100;-83
2023/03/17 06:02:34;;;;;;;13.52;6.65;;;;;;;;;;5001801;28;20026;-82
2023/03/17 06:05:01;;;;;;;13.57;8.02;;;;;;;;;;5010601;28;20022;-83
2023/03/17 06:07:28;;;;;;;12.38;7.70;;;;;;;;;;5019657;28;21778;-82
2023/03/17 06:09:54;;;;;;;11.25;6.78;;;;;;;;;;5021983;28;20470;-80
2023/03/17 06:12:21;;;;;;;11.50;6.88;;;;;;;;;;5015248;28;20037;-82
2023/03/17 06:14:47;;;;;;;11.50;7.38;;;;;;;;;;5002193;28;20026;-79
2023/03/17 06:17:13;;;;;;;13.07;6.10;;;;;;;;;;5017371;28;20633;-81
2023/03/17 06:19:39;;;;;;;12.32;6.43;;;;;;;;;;5018195;28;20018;-81
2023/03/17 06:22:06;;;;;;;12.60;6.60;;;;;;;;;;5026981;28;20120;-81
2023/03/17 06:24:32;;;;;;;12.80;7.07;;;;;;;;;;5031617;28;20041;-81
2023/03/17 06:26:58;;;;;;;10.10;6.05;;;;;;;;;;5016205;28;20109;-81
2023/03/17 06:29:24;;;;;;;12.93;7.40;;;;;;;;;;5002954;28;20034;-82
2023/03/17 06:31:50;;;;;;;14.90;7.15;;;;;;;;;;5009583;28;20038;-82
2023/03/17 06:34:20;;;;;;;14.75;7.22;;;;;;;;;;5009506;28;20224;-81
2023/03/17 06:36:47;;;;;;;11.05;6.65;;;;;;;;;;5003931;28;20026;-81
2023/03/17 06:39:14;;;;;;;11.98;6.63;;;;;;;;;;5001940;28;20034;-81
2023/03/17 06:41:40;;;;;;;12.20;6.57;;;;;;;;;;5004451;28;20624;-81
2023/03/17 06:44:07;;;;;;;12.18;6.55;;;;;;;;;;5021269;28;20034;-78
2023/03/17 06:46:33;;;;;;;11.68;6.30;;;;;;;;;;5022483;28;20569;-80
2023/03/17 06:49:00;;;;;;;10.40;5.57;;;;;;;;;;5020056;28;20022;-80
2023/03/17 06:51:26;;;;;;;11.95;6.25;;;;;;;;;;5019227;28;20037;-80
2023/03/17 06:53:52;;;;;;;11.68;5.72;;;;;;;;;;5011872;28;20022;-82
2023/03/17 06:56:18;;;;;;;9.18;5.32;;;;;;;;;;5012446;28;20049;-80
2023/03/17 06:58:45;;;;;;;11.38;6.15;;;;;;;;;;5011453;28;20062;-81
2023/03/17 07:01:13;;;;;;;10.50;5.70;;;;;;;;;;5007757;28;20037;-83
2023/03/17 07:03:39;;;;;;;12.20;5.72;;;;;;;;;;5019503;28;21084;-81
2023/03/17 07:06:05;;;;;;;10.77;5.85;;;;;;;;;;5008229;28;20121;-81
2023/03/17 07:08:32;;;;;;;9.82;4.80;;;;;;;;;;5013981;28;20113;-82
2023/03/17 07:10:58;;;;;;;8.98;5.03;;;;;;;;;;5014151;28;20026;-81
2023/03/17 07:13:24;;;;;;;10.15;5.47;;;;;;;;;;5021235;28;20036;-81
2023/03/17 07:15:51;;;;;;;11.50;5.47;;;;;;;;;;5014302;28;20021;-82
2023/03/17 07:18:17;;;;;;;10.73;5.38;;;;;;;;;;5006775;28;20037;-81
2023/03/17 07:20:43;;;;;;;8.90;4.03;;;;;;;;;;5004150;28;20022;-80
2023/03/17 07:23:15;;;;;;;7.65;4.47;;;;;;;;;;5023200;28;20044;-80
2023/03/17 07:25:42;;;;;;;16.23;6.50;;;;;;;;;;5016631;28;20064;-82
2023/03/17 07:28:08;;;;;;;9.30;4.63;;;;;;;;;;5005838;28;20037;-80
2023/03/17 07:30:35;;;;;;;9.05;4.95;;;;;;;;;;5017877;28;20048;-81
2023/03/17 07:33:01;;;;;;;8.57;4.18;;;;;;;;;;5004097;28;20080;-81
2023/03/17 07:35:27;;;;;;;9.35;4.53;;;;;;;;;;5001833;28;20050;-80
2023/03/17 07:37:53;;;;;;;8.00;4.30;;;;;;;;;;5007648;28;20029;-79
2023/03/17 07:40:20;;;;;;;10.27;4.65;;;;;;;;;;5010625;28;20146;-80
2023/03/17 07:42:46;;;;;;;7.53;3.90;;;;;;;;;;5019389;28;20037;-79
2023/03/17 07:45:12;;;;;;;10.05;4.50;;;;;;;;;;5020169;28;20025;-80
2023/03/17 07:47:39;;;;;;;9.00;4.72;;;;;;;;;;5015758;28;20049;-80
2023/03/17 07:50:05;;;;;;;9.35;4.43;;;;;;;;;;5021055;28;20032;-80
2023/03/17 07:52:31;;;;;;;11.50;4.68;;;;;;;;;;5019730;28;20089;-80
2023/03/17 07:54:57;;;;;;;7.45;4.25;;;;;;;;;;5011610;28;20046;-80
2023/03/17 07:57:24;;;;;;;8.80;4.30;;;;;;;;;;5006935;28;20055;-82
2023/03/17 07:59:50;;;;;;;7.45;4.20;;;;;;;;;;5007472;28;20108;-81
2023/03/17 08:02:16;;;;;;;10.40;4.10;;;;;;;;;;5009198;28;20175;-81
2023/03/17 08:04:43;;;;;;;11.38;4.15;;;;;;;;;;5004528;28;20053;-81
2023/03/17 08:07:13;;;;;;;7.15;3.83;;;;;;;;;;5018214;28;20046;-80
2023/03/17 08:09:39;;;;;;;7.80;3.97;;;;;;;;;;5015474;28;20041;-80
2023/03/17 08:12:06;;;;;;;10.15;4.32;;;;;;;;;;5019000;28;20052;-82
2023/03/17 08:14:32;;;;;;;8.05;3.70;;;;;;;;;;5005928;28;20050;-81
2023/03/17 08:16:58;;;;;;;8.35;3.78;;;;;;;;;;5014576;28;20118;-81
2023/03/17 08:22:27;;;;;;;8.77;4.30;;;;;;;;;;5012721;28;20026;-79
2023/03/17 08:27:57;;;;;;;9.10;4.18;;;;;;;;;;5013170;28;20026;-82
2023/03/17 08:30:23;;;;;;;8.02;4.80;;;;;;;;;;5002238;28;20539;-81
2023/03/17 08:32:49;;;;;;;6.60;3.40;;;;;;;;;;5004199;28;20027;-78
2023/03/17 08:35:16;;;;;;;7.72;4.18;;;;;;;;;;5009897;28;20034;-82
2023/03/17 08:37:42;;;;;;;7.07;4.10;;;;;;;;;;5014169;28;20026;-81
2023/03/17 08:40:11;;;;;;;9.68;4.57;;;;;;;;;;5010908;28;20025;-80
2023/03/17 08:42:37;;;;;;;11.43;4.25;;;;;;;;;;5011544;28;20030;-81
2023/03/17 08:45:05;;;;;;;7.25;3.97;;;;;;;;;;5010063;28;20030;-81
2023/03/17 08:47:32;;;;;;;7.70;4.00;;;;;;;;;;5007685;28;20037;-80
2023/03/17 08:49:59;;;;;;;9.68;4.07;;;;;;;;;;5009985;28;20032;-83
2023/03/17 08:52:26;;;;;;;5.40;3.30;;;;;;;;;;5007740;28;20038;-82
2023/03/17 08:54:53;;;;;;;8.23;4.35;;;;;;;;;;5001326;28;20846;-80
2023/03/17 08:57:19;;;;;;;8.55;3.90;;;;;;;;;;4996618;28;20073;-81
2023/03/17 08:59:46;;;;;;;8.07;3.20;;;;;;;;;;4998844;28;20037;-82
2023/03/17 09:02:13;;;;;;;9.40;4.03;;;;;;;;;;5013914;28;20030;-81
2023/03/17 09:04:40;;;;;;;11.27;5.03;;;;;;;;;;5020391;28;20025;-82
2023/03/17 09:07:06;;;;;;;7.90;3.90;;;;;;;;;;5017472;28;20045;-82
2023/03/17 09:09:34;;;;;;;10.00;4.10;;;;;;;;;;5013130;28;20034;-81
2023/03/17 09:12:00;;;;;;;8.00;4.00;;;;;;;;;;5002486;28;20018;-82
2023/03/17 09:14:27;;;;;;;8.10;3.70;;;;;;;;;;5017616;28;20050;-82
2023/03/17 09:16:53;;;;;;;9.93;4.03;;;;;;;;;;5016596;28;20037;-81
2023/03/17 09:19:20;;;;;;;8.48;4.28;;;;;;;;;;5009334;28;20030;-81
2023/03/17 09:21:47;;;;;;;10.57;4.10;;;;;;;;;;5003578;28;20018;-81
2023/03/17 09:24:13;;;;;;;8.77;4.28;;;;;;;;;;5002758;28;20030;-81
2023/03/17 09:26:39;;;;;;;10.15;4.50;;;;;;;;;;5020901;28;20033;-81
2023/03/17 09:29:06;;;;;;;11.20;3.78;;;;;;;;;;5012234;28;20022;-81
2023/03/17 09:31:34;;;;;;;8.18;4.38;;;;;;;;;;5002156;28;20026;-81
2023/03/17 09:34:00;;;;;;;9.88;3.80;;;;;;;;;;5002602;28;20078;-82
2023/03/17 09:36:27;;;;;;;9.43;4.53;;;;;;;;;;5002007;28;20545;-82
2023/03/17 09:38:53;;;;;;;7.20;3.88;;;;;;;;;;5013546;28;20022;-81
2023/03/17 09:41:32;;;;;;;8.43;4.78;;;;;;;;;;5020996;28;20033;-81
2023/03/17 09:44:17;;;;;;;11.85;4.03;;;;;;;;;;5012183;28;20442;-80
2023/03/17 09:46:52;;;;;;;9.25;4.38;;;;;;;;;;5011292;28;20034;-80
2023/03/17 09:49:19;;;;;;;7.20;4.47;;;;;;;;;;5010380;28;20030;-81
2023/03/17 09:51:46;;;;;;;8.95;3.70;;;;;;;;;;5016894;28;20463;-81
2023/03/17 09:54:17;;;;;;;9.55;3.85;;;;;;;;;;5014299;28;20109;-81
2023/03/17 09:56:46;;;;;;;9.85;3.97;;;;;;;;;;5007526;28;20018;-83
2023/03/17 09:59:30;;;;;;;7.13;4.57;;;;;;;;;;5009736;28;20043;-79
2023/03/17 10:01:56;;;;;;;8.73;3.97;;;;;;;;;;5003726;28;20109;-82
2023/03/17 10:04:23;;;;;;;8.35;3.63;;;;;;;;;;5008104;28;20038;-81
2023/03/17 10:06:49;;;;;;;6.43;3.72;;;;;;;;;;5022194;28;20390;-81
2023/03/17 10:09:35;;;;;;;8.85;3.97;;;;;;;;;;5021595;28;20022;-79
2023/03/17 10:12:06;;;;;;;8.40;4.10;;;;;;;;;;5002664;28;20054;-81
2023/03/17 10:14:38;;;;;;;8.27;3.83;;;;;;;;;;5006056;28;20030;-80
2023/03/17 10:17:18;;;;;;;7.97;3.80;;;;;;;;;;5000759;28;20030;-82
2023/03/17 10:20:00;;;;;;;7.97;4.05;;;;;;;;;;5001376;28;20022;-79
2023/03/17 10:22:31;;;;;;;11.32;4.18;;;;;;;;;;5020041;28;20026;-80
2023/03/17 10:25:01;;;;;;;7.75;3.72;;;;;;;;;;5014577;28;20042;-80
2023/03/17 10:27:30;;;;;;;7.65;3.70;;;;;;;;;;5017104;28;20022;-81
2023/03/17 10:29:56;;;;;;;11.45;4.40;;;;;;;;;;5018583;28;20231;-82
2023/03/17 10:32:22;;;;;;;11.77;3.55;;;;;;;;;;5000289;28;20042;-80
2023/03/17 10:34:49;;;;;;;10.95;3.63;;;;;;;;;;5008608;28;20014;-79
2023/03/17 10:37:20;;;;;;;8.63;3.72;;;;;;;;;;5008301;28;20108;-81
2023/03/17 10:39:50;;;;;;;9.70;4.10;;;;;;;;;;5002127;28;20076;-81
2023/03/17 10:42:19;;;;;;;8.15;3.50;;;;;;;;;;5000684;28;20034;-79
2023/03/17 10:44:55;;;;;;;7.45;3.20;;;;;;;;;;5005477;28;20104;-80
2023/03/17 10:47:38;;;;;;;8.13;3.55;;;;;;;;;;5021462;28;20097;-78
2023/03/17 10:50:04;;;;;;;9.48;4.07;;;;;;;;;;5010566;28;20037;-80
2023/03/17 10:52:35;;;;;;;8.43;4.15;;;;;;;;;;5002378;28;20446;-80
2023/03/17 10:55:04;;;;;;;7.13;3.65;;;;;;;;;;4999877;28;20026;-80
2023/03/17 10:57:31;;;;;;;9.15;3.58;;;;;;;;;;4999959;28;20235;-81
2023/03/17 10:59:59;;;;;;;8.85;4.28;;;;;;;;;;5006361;28;20060;-80
2023/03/17 11:02:28;;;;;;;9.00;3.97;;;;;;;;;;5020271;28;20032;-80
2023/03/17 11:04:59;;;;;;;10.73;3.95;;;;;;;;;;5018532;28;20029;-80
2023/03/17 11:07:35;;;;;;;8.45;3.45;;;;;;;;;;5005285;28;20022;-79
2023/03/17 11:10:02;;;;;;;8.70;3.92;;;;;;;;;;5002704;28;20034;-80
2023/03/17 11:12:35;;;;;;;10.70;3.78;;;;;;;;;;5009056;28;20026;-79
2023/03/17 11:15:05;;;;;;;10.13;3.80;;;;;;;;;;5003785;28;20438;-79
2023/03/17 11:17:51;;;;;;;7.68;3.60;;;;;;;;;;5015960;28;20022;-81
2023/03/17 11:20:36;;;;;;;9.73;3.70;;;;;;;;;;5006254;28;20018;-82
2023/03/17 11:23:21;;;;;;;8.38;3.88;;;;;;;;;;5004160;28;20037;-82
2023/03/17 11:25:48;;;;;;;9.15;4.22;;;;;;;;;;5000126;28;20030;-82
2023/03/17 11:28:27;;;;;;;10.13;4.05;;;;;;;;;;5000910;28;20442;-83
2023/03/17 11:31:14;;;;;;;6.90;4.18;;;;;;;;;;5012672;28;20026;-82
2023/03/17 11:33:53;;;;;;;8.40;3.78;;;;;;;;;;5018725;28;20048;-82
2023/03/17 11:36:23;;;;;;;7.75;4.18;;;;;;;;;;5020377;28;20022;-83
2023/03/17 11:38:57;;;;;;;10.27;4.10;;;;;;;;;;5019582;28;20100;-84
2023/03/17 11:41:23;;;;;;;9.13;4.82;;;;;;;;;;5008722;28;20038;-81
2023/03/17 11:43:58;;;;;;;8.45;4.38;;;;;;;;;;5009525;28;20386;-81
2023/03/17 11:46:33;;;;;;;8.82;4.63;;;;;;;;;;5017359;28;20046;-82
2023/03/17 11:49:17;;;;;;;9.00;4.45;;;;;;;;;;5017293;28;20026;-81
2023/03/17 11:52:02;;;;;;;9.77;4.10;;;;;;;;;;4998644;28;20054;-83
2023/03/17 11:54:44;;;;;;;10.48;4.60;;;;;;;;;;4998020;28;20104;-80
2023/03/17 11:57:17;;;;;;;8.75;4.20;;;;;;;;;;4999258;28;20014;-82
2023/03/17 11:59:46;;;;;;;9.98;5.03;;;;;;;;;;5000049;28;20046;-83
2023/03/17 12:02:12;;;;;;;7.78;4.20;;;;;;;;;;4999641;28;20014;-82
2023/03/17 12:04:45;;;;;;;8.13;4.10;;;;;;;;;;5008103;28;20371;-83
2023/03/17 12:07:32;;;;;;;9.18;4.63;;;;;;;;;;4999678;28;20100;-81
2023/03/17 12:10:01;;;;;;;9.80;4.38;;;;;;;;;;4992655;28;20034;-83
2023/03/17 12:12:33;;;;;;;9.90;4.30;;;;;;;;;;5015402;28;20030;-81
2023/03/17 12:15:01;;;;;;;11.30;4.00;;;;;;;;;;5018256;28;20145;-82
2023/03/17 12:17:32;;;;;;;7.78;3.53;;;;;;;;;;5015215;28;20033;-84
2023/03/17 12:20:09;;;;;;;8.45;4.05;;;;;;;;;;5018169;28;20014;-83
2023/03/17 12:22:53;;;;;;;9.23;4.07;;;;;;;;;;5001164;28;20478;-83
2023/03/17 12:25:27;;;;;;;11.25;3.47;;;;;;;;;;5026705;28;20010;-81
2023/03/17 12:27:56;;;;;;;8.52;4.40;;;;;;;;;;5016821;28;20060;-82
2023/03/17 12:30:34;;;;;;;7.45;3.58;;;;;;;;;;5009578;28;20030;-83
2023/03/17 12:33:00;;;;;;;6.78;3.65;;;;;;;;;;5005060;28;20034;-83
2023/03/17 12:35:27;;;;;;;8.25;4.32;;;;;;;;;;5022564;28;20517;-82
2023/03/17 12:37:55;;;;;;;9.77;4.00;;;;;;;;;;5014414;28;20018;-83
2023/03/17 12:40:30;;;;;;;8.10;3.58;;;;;;;;;;5003816;28;20454;-82
2023/03/17 12:43:15;;;;;;;9.00;4.18;;;;;;;;;;5013749;28;20030;-82
2023/03/17 12:45:47;;;;;;;7.88;3.80;;;;;;;;;;5010872;28;20030;-81
2023/03/17 12:48:25;;;;;;;10.95;4.25;;;;;;;;;;5018007;28;20461;-84
2023/03/17 12:51:10;;;;;;;8.18;3.90;;;;;;;;;;5019019;28;20030;-84
2023/03/17 12:53:37;;;;;;;7.45;3.47;;;;;;;;;;5010790;28;20109;-83
2023/03/17 12:56:11;;;;;;;7.15;3.47;;;;;;;;;;5019373;28;20405;-83
2023/03/17 12:58:39;;;;;;;6.95;3.60;;;;;;;;;;5022473;28;20056;-82
2023/03/17 13:01:07;;;;;;;8.43;3.70;;;;;;;;;;5024153;28;20037;-82
2023/03/17 13:03:35;;;;;;;8.98;3.97;;;;;;;;;;5020413;28;20105;-84
2023/03/17 13:06:09;;;;;;;7.40;3.35;;;;;;;;;;5022547;28;20061;-82
2023/03/17 13:08:36;;;;;;;8.38;3.83;;;;;;;;;;5021544;28;20060;-84
2023/03/17 13:11:25;;;;;;;6.90;3.65;;;;;;;;;;5022799;28;20033;-83
2023/03/17 13:13:53;;;;;;;8.65;3.53;;;;;;;;;;5018708;28;20117;-83
2023/03/17 13:16:27;;;;;;;7.78;4.00;;;;;;;;;;5009870;28;20027;-83
2023/03/17 13:19:06;;;;;;;7.95;3.35;;;;;;;;;;5003558;28;20030;-83
2023/03/17 13:21:32;;;;;;;7.20;3.60;;;;;;;;;;5016819;28;20026;-83
2023/03/17 13:24:19;;;;;;;7.70;3.65;;;;;;;;;;5023332;28;20030;-82
2023/03/17 13:26:59;;;;;;;7.50;2.95;;;;;;;;;;5021239;28;20072;-82
2023/03/17 13:29:25;;;;;;;7.65;3.67;;;;;;;;;;5003801;28;20026;-81
2023/03/17 13:31:51;;;;;;;6.90;3.08;;;;;;;;;;5019365;28;20273;-83
2023/03/17 13:34:19;;;;;;;6.60;3.28;;;;;;;;;;5023523;28;20482;-83
2023/03/17 13:37:14;;;;;;;7.15;3.55;;;;;;;;;;5018231;28;20540;-82
2023/03/17 13:39:59;;;;;;;11.02;4.00;;;;;;;;;;5017633;28;20033;-81
2023/03/17 13:42:36;;;;;;;7.65;4.28;;;;;;;;;;5021649;28;20045;-83
2023/03/17 13:45:08;;;;;;;7.22;3.55;;;;;;;;;;5006492;28;20034;-82
2023/03/17 13:47:36;;;;;;;8.68;3.63;;;;;;;;;;5011652;28;20115;-82
2023/03/17 13:50:14;;;;;;;7.05;3.30;;;;;;;;;;5020419;28;20030;-82
2023/03/17 13:52:49;;;;;;;7.05;3.75;;;;;;;;;;5022104;28;20576;-82
2023/03/17 13:55:19;;;;;;;7.10;3.38;;;;;;;;;;5004430;28;20018;-82
2023/03/17 13:58:04;;;;;;;6.47;3.25;;;;;;;;;;5009610;28;20022;-82
2023/03/17 14:00:32;;;;;;;6.72;3.70;;;;;;;;;;5008004;28;20037;-84
2023/03/17 14:03:04;;;;;;;7.85;3.22;;;;;;;;;;5002083;28;20125;-84
2023/03/17 14:05:33;;;;;;;8.88;3.78;;;;;;;;;;5040182;28;20057;-84
2023/03/17 14:08:01;;;;;;;8.27;3.53;;;;;;;;;;5028303;28;20058;-84
2023/03/17 14:10:30;;;;;;;10.32;4.25;;;;;;;;;;5017595;28;20042;-84
2023/03/17 14:13:05;;;;;;;7.53;3.38;;;;;;;;;;5019362;28;20014;-84
2023/03/17 14:15:33;;;;;;;7.50;3.80;;;;;;;;;;5015805;28;20109;-84
2023/03/17 14:18:14;;;;;;;6.85;3.38;;;;;;;;;;5023906;28;20097;-83
2023/03/17 14:20:40;;;;;;;6.75;2.70;;;;;;;;;;5015751;28;20450;-81
2023/03/17 14:23:06;;;;;;;7.75;3.70;;;;;;;;;;5003413;28;20033;-85
2023/03/17 14:25:33;;;;;;;7.28;3.15;;;;;;;;;;5009003;28;20045;-84
2023/03/17 14:27:59;;;;;;;7.80;3.60;;;;;;;;;;5007143;28;20126;-83
2023/03/17 14:30:30;;;;;;;7.40;3.28;;;;;;;;;;5001812;28;20059;-82
2023/03/17 14:32:59;;;;;;;5.97;3.22;;;;;;;;;;5003268;28;20057;-83
2023/03/17 14:35:28;;;;;;;7.13;3.17;;;;;;;;;;5000822;28;20113;-83
2023/03/17 14:37:54;;;;;;;9.20;3.70;;;;;;;;;;5009131;28;20058;-82
2023/03/17 14:40:22;;;;;;;9.07;3.40;;;;;;;;;;5008320;28;20034;-83
2023/03/17 14:42:48;;;;;;;8.48;3.53;;;;;;;;;;5001551;28;20030;-83
2023/03/17 14:45:40;;;;;;;8.05;3.60;;;;;;;;;;5002135;28;20030;-84
2023/03/17 14:48:09;;;;;;;7.68;3.50;;;;;;;;;;5018601;28;20116;-83
2023/03/17 14:50:35;;;;;;;8.75;4.15;;;;;;;;;;5006866;28;20120;-84
2023/03/17 14:53:01;;;;;;;7.07;3.72;;;;;;;;;;5031552;28;20034;-83
2023/03/17 14:55:35;;;;;;;8.27;3.60;;;;;;;;;;5006101;28;20026;-84
2023/03/17 14:58:06;;;;;;;6.28;3.53;;;;;;;;;;5013618;28;20021;-82